sensor_id;sensor_type;location;lat;lon;timestamp;P1;durP1;ratioP1;P2;durP2;ratioP2
60726;SDS011;46577;49.004;12.120;2022-08-01T00:00:59;6.63;;;2.97;;
60726;SDS011;46577;49.004;12.120;2022-08-01T00:03:25;4.60;;;3.10;;
60726;SDS011;46577;49.004;12.120;2022-08-01T00:05:51;3.53;;;2.50;;
60726;SDS011;46577;49.004;12.120;2022-08-01T00:08:16;3.67;;;2.70;;
60726;SDS011;46577;49.004;12.120;2022-08-01T00:10:42;9.53;;;2.70;;
60726;SDS011;46577;49.004;12.120;2022-08-01T00:13:08;4.60;;;2.40;;
60726;SDS011;46577;49.004;12.120;2022-08-01T00:15:33;2.63;;;2.43;;
60726;SDS011;46577;49.004;12.120;2022-08-01T00:17:59;2.90;;;2.60;;
60726;SDS011;46577;49.004;12.120;2022-08-01T00:20:25;4.20;;;2.60;;
60726;SDS011;46577;49.004;12.120;2022-08-01T00:22:50;2.67;;;2.47;;
60726;SDS011;46577;49.004;12.120;2022-08-01T00:25:16;2.50;;;2.30;;
60726;SDS011;46577;49.004;12.120;2022-08-01T00:27:41;4.93;;;2.43;;
60726;SDS011;46577;49.004;12.120;2022-08-01T00:30:07;4.23;;;3.13;;
60726;SDS011;46577;49.004;12.120;2022-08-01T00:32:33;4.33;;;2.47;;
60726;SDS011;46577;49.004;12.120;2022-08-01T00:34:59;2.50;;;2.30;;
60726;SDS011;46577;49.004;12.120;2022-08-01T00:37:25;6.00;;;2.90;;
60726;SDS011;46577;49.004;12.120;2022-08-01T00:39:50;6.13;;;3.30;;
60726;SDS011;46577;49.004;12.120;2022-08-01T00:42:16;6.13;;;3.10;;
60726;SDS011;46577;49.004;12.120;2022-08-01T00:44:42;8.40;;;3.10;;
60726;SDS011;46577;49.004;12.120;2022-08-01T00:47:08;7.53;;;3.67;;
60726;SDS011;46577;49.004;12.120;2022-08-01T00:49:34;3.40;;;2.93;;
60726;SDS011;46577;49.004;12.120;2022-08-01T00:52:00;3.33;;;2.60;;
60726;SDS011;46577;49.004;12.120;2022-08-01T00:54:27;4.10;;;3.20;;
60726;SDS011;46577;49.004;12.120;2022-08-01T00:56:53;5.97;;;3.30;;
60726;SDS011;46577;49.004;12.120;2022-08-01T00:59:21;4.47;;;3.10;;
60726;SDS011;46577;49.004;12.120;2022-08-01T01:01:47;4.37;;;2.43;;
60726;SDS011;46577;49.004;12.120;2022-08-01T01:04:13;8.13;;;2.83;;
60726;SDS011;46577;49.004;12.120;2022-08-01T01:06:58;6.10;;;3.63;;
60726;SDS011;46577;49.004;12.120;2022-08-01T01:09:44;4.00;;;3.30;;
60726;SDS011;46577;49.004;12.120;2022-08-01T01:15:07;5.03;;;2.90;;
60726;SDS011;46577;49.004;12.120;2022-08-01T01:20:22;8.13;;;3.50;;
60726;SDS011;46577;49.004;12.120;2022-08-01T01:30:31;5.87;;;3.40;;
60726;SDS011;46577;49.004;12.120;2022-08-01T01:33:01;5.47;;;3.80;;
60726;SDS011;46577;49.004;12.120;2022-08-01T01:35:31;5.50;;;3.33;;
60726;SDS011;46577;49.004;12.120;2022-08-01T01:38:14;5.63;;;3.40;;
60726;SDS011;46577;49.004;12.120;2022-08-01T01:40:45;12.67;;;4.07;;
60726;SDS011;46577;49.004;12.120;2022-08-01T01:43:12;4.97;;;3.60;;
60726;SDS011;46577;49.004;12.120;2022-08-01T01:45:40;7.27;;;4.00;;
60726;SDS011;46577;49.004;12.120;2022-08-01T01:48:09;4.77;;;3.53;;
60726;SDS011;46577;49.004;12.120;2022-08-01T01:50:37;6.73;;;3.53;;
60726;SDS011;46577;49.004;12.120;2022-08-01T01:53:04;8.70;;;4.03;;
60726;SDS011;46577;49.004;12.120;2022-08-01T01:55:31;7.67;;;3.70;;
60726;SDS011;46577;49.004;12.120;2022-08-01T01:57:59;9.27;;;3.30;;
60726;SDS011;46577;49.004;12.120;2022-08-01T02:00:25;5.53;;;3.20;;
60726;SDS011;46577;49.004;12.120;2022-08-01T02:02:54;12.17;;;4.00;;
60726;SDS011;46577;49.004;12.120;2022-08-01T02:05:22;4.07;;;3.37;;
60726;SDS011;46577;49.004;12.120;2022-08-01T02:07:48;7.13;;;3.20;;
60726;SDS011;46577;49.004;12.120;2022-08-01T02:10:17;6.47;;;3.70;;
60726;SDS011;46577;49.004;12.120;2022-08-01T02:12:44;3.90;;;3.30;;
60726;SDS011;46577;49.004;12.120;2022-08-01T02:15:12;5.03;;;3.37;;
60726;SDS011;46577;49.004;12.120;2022-08-01T02:17:42;6.90;;;3.90;;
60726;SDS011;46577;49.004;12.120;2022-08-01T02:20:10;6.20;;;3.40;;
60726;SDS011;46577;49.004;12.120;2022-08-01T02:22:37;8.57;;;3.90;;
60726;SDS011;46577;49.004;12.120;2022-08-01T02:25:10;5.60;;;3.97;;
60726;SDS011;46577;49.004;12.120;2022-08-01T02:27:45;7.97;;;4.47;;
60726;SDS011;46577;49.004;12.120;2022-08-01T02:30:25;7.37;;;4.20;;
60726;SDS011;46577;49.004;12.120;2022-08-01T02:33:00;3.97;;;3.37;;
60726;SDS011;46577;49.004;12.120;2022-08-01T02:35:57;5.73;;;3.70;;
60726;SDS011;46577;49.004;12.120;2022-08-01T02:38:26;3.80;;;3.13;;
60726;SDS011;46577;49.004;12.120;2022-08-01T02:40:55;4.83;;;3.23;;
60726;SDS011;46577;49.004;12.120;2022-08-01T02:43:26;3.90;;;3.50;;
60726;SDS011;46577;49.004;12.120;2022-08-01T02:45:56;6.93;;;4.13;;
60726;SDS011;46577;49.004;12.120;2022-08-01T02:48:25;4.90;;;3.87;;
60726;SDS011;46577;49.004;12.120;2022-08-01T02:50:52;6.40;;;3.20;;
60726;SDS011;46577;49.004;12.120;2022-08-01T02:53:21;10.90;;;4.23;;
60726;SDS011;46577;49.004;12.120;2022-08-01T02:55:50;8.13;;;3.90;;
60726;SDS011;46577;49.004;12.120;2022-08-01T02:58:18;8.00;;;3.70;;
60726;SDS011;46577;49.004;12.120;2022-08-01T03:00:45;6.10;;;3.70;;
60726;SDS011;46577;49.004;12.120;2022-08-01T03:03:12;4.77;;;3.23;;
60726;SDS011;46577;49.004;12.120;2022-08-01T03:05:40;10.97;;;4.00;;
60726;SDS011;46577;49.004;12.120;2022-08-01T03:08:08;4.53;;;3.83;;
60726;SDS011;46577;49.004;12.120;2022-08-01T03:10:36;4.40;;;4.00;;
60726;SDS011;46577;49.004;12.120;2022-08-01T03:13:03;10.37;;;4.47;;
60726;SDS011;46577;49.004;12.120;2022-08-01T03:15:32;8.37;;;4.07;;
60726;SDS011;46577;49.004;12.120;2022-08-01T03:18:05;6.03;;;4.37;;
60726;SDS011;46577;49.004;12.120;2022-08-01T03:20:34;5.73;;;3.90;;
60726;SDS011;46577;49.004;12.120;2022-08-01T03:23:01;6.37;;;3.60;;
60726;SDS011;46577;49.004;12.120;2022-08-01T03:25:30;6.43;;;3.80;;
60726;SDS011;46577;49.004;12.120;2022-08-01T03:27:58;4.40;;;3.90;;
60726;SDS011;46577;49.004;12.120;2022-08-01T03:30:27;4.73;;;2.97;;
60726;SDS011;46577;49.004;12.120;2022-08-01T03:32:53;5.97;;;3.40;;
60726;SDS011;46577;49.004;12.120;2022-08-01T03:35:20;3.30;;;2.53;;
60726;SDS011;46577;49.004;12.120;2022-08-01T03:37:49;3.90;;;3.17;;
60726;SDS011;46577;49.004;12.120;2022-08-01T03:40:20;2.77;;;2.37;;
60726;SDS011;46577;49.004;12.120;2022-08-01T03:42:59;3.13;;;2.33;;
60726;SDS011;46577;49.004;12.120;2022-08-01T03:45:37;2.90;;;2.30;;
60726;SDS011;46577;49.004;12.120;2022-08-01T03:48:09;4.37;;;2.57;;
60726;SDS011;46577;49.004;12.120;2022-08-01T03:50:42;2.90;;;2.30;;
60726;SDS011;46577;49.004;12.120;2022-08-01T03:53:11;8.80;;;2.77;;
60726;SDS011;46577;49.004;12.120;2022-08-01T03:55:39;3.70;;;2.60;;
60726;SDS011;46577;49.004;12.120;2022-08-01T03:58:08;3.77;;;2.70;;
60726;SDS011;46577;49.004;12.120;2022-08-01T04:00:35;5.53;;;2.40;;
60726;SDS011;46577;49.004;12.120;2022-08-01T04:03:08;4.23;;;2.87;;
60726;SDS011;46577;49.004;12.120;2022-08-01T04:05:35;5.83;;;2.60;;
60726;SDS011;46577;49.004;12.120;2022-08-01T04:08:01;3.10;;;2.77;;
60726;SDS011;46577;49.004;12.120;2022-08-01T04:10:27;4.10;;;2.40;;
60726;SDS011;46577;49.004;12.120;2022-08-01T04:12:54;4.27;;;2.90;;
60726;SDS011;46577;49.004;12.120;2022-08-01T04:15:20;3.40;;;2.67;;
60726;SDS011;46577;49.004;12.120;2022-08-01T04:17:46;3.33;;;3.03;;
60726;SDS011;46577;49.004;12.120;2022-08-01T04:20:12;4.87;;;2.93;;
60726;SDS011;46577;49.004;12.120;2022-08-01T04:22:38;7.60;;;2.80;;
60726;SDS011;46577;49.004;12.120;2022-08-01T04:25:06;6.70;;;2.73;;
60726;SDS011;46577;49.004;12.120;2022-08-01T04:27:36;6.33;;;2.70;;
60726;SDS011;46577;49.004;12.120;2022-08-01T04:30:05;2.80;;;2.60;;
60726;SDS011;46577;49.004;12.120;2022-08-01T04:32:34;2.57;;;2.33;;
60726;SDS011;46577;49.004;12.120;2022-08-01T04:35:04;3.30;;;2.63;;
60726;SDS011;46577;49.004;12.120;2022-08-01T04:37:32;3.83;;;2.40;;
60726;SDS011;46577;49.004;12.120;2022-08-01T04:40:02;4.60;;;2.90;;
60726;SDS011;46577;49.004;12.120;2022-08-01T04:42:30;2.67;;;2.47;;
60726;SDS011;46577;49.004;12.120;2022-08-01T04:44:57;7.17;;;2.57;;
60726;SDS011;46577;49.004;12.120;2022-08-01T04:47:23;4.10;;;2.70;;
60726;SDS011;46577;49.004;12.120;2022-08-01T04:49:50;3.40;;;2.90;;
60726;SDS011;46577;49.004;12.120;2022-08-01T04:52:16;3.43;;;2.80;;
60726;SDS011;46577;49.004;12.120;2022-08-01T04:54:42;5.07;;;3.50;;
60726;SDS011;46577;49.004;12.120;2022-08-01T04:57:08;8.03;;;3.47;;
60726;SDS011;46577;49.004;12.120;2022-08-01T04:59:35;4.17;;;3.20;;
60726;SDS011;46577;49.004;12.120;2022-08-01T05:02:13;16.77;;;3.47;;
60726;SDS011;46577;49.004;12.120;2022-08-01T05:04:40;3.70;;;3.10;;
60726;SDS011;46577;49.004;12.120;2022-08-01T05:07:07;6.00;;;2.67;;
60726;SDS011;46577;49.004;12.120;2022-08-01T05:09:34;3.60;;;2.60;;
60726;SDS011;46577;49.004;12.120;2022-08-01T05:12:01;8.93;;;2.77;;
60726;SDS011;46577;49.004;12.120;2022-08-01T05:14:28;4.20;;;2.77;;
60726;SDS011;46577;49.004;12.120;2022-08-01T05:16:57;7.73;;;2.93;;
60726;SDS011;46577;49.004;12.120;2022-08-01T05:19:28;4.27;;;2.93;;
60726;SDS011;46577;49.004;12.120;2022-08-01T05:22:01;3.57;;;3.23;;
60726;SDS011;46577;49.004;12.120;2022-08-01T05:24:29;3.87;;;3.20;;
60726;SDS011;46577;49.004;12.120;2022-08-01T05:26:59;7.50;;;2.87;;
60726;SDS011;46577;49.004;12.120;2022-08-01T05:29:26;7.03;;;3.13;;
60726;SDS011;46577;49.004;12.120;2022-08-01T05:31:52;6.10;;;2.90;;
60726;SDS011;46577;49.004;12.120;2022-08-01T05:34:19;2.97;;;2.50;;
60726;SDS011;46577;49.004;12.120;2022-08-01T05:36:45;3.40;;;2.80;;
60726;SDS011;46577;49.004;12.120;2022-08-01T05:39:11;7.70;;;3.10;;
60726;SDS011;46577;49.004;12.120;2022-08-01T05:41:37;4.10;;;2.57;;
60726;SDS011;46577;49.004;12.120;2022-08-01T05:44:04;2.50;;;2.30;;
60726;SDS011;46577;49.004;12.120;2022-08-01T05:46:30;5.30;;;2.70;;
60726;SDS011;46577;49.004;12.120;2022-08-01T05:48:59;3.57;;;2.47;;
60726;SDS011;46577;49.004;12.120;2022-08-01T05:51:25;8.43;;;2.60;;
60726;SDS011;46577;49.004;12.120;2022-08-01T05:53:51;6.50;;;2.70;;
60726;SDS011;46577;49.004;12.120;2022-08-01T05:56:17;14.97;;;2.70;;
60726;SDS011;46577;49.004;12.120;2022-08-01T05:58:43;2.57;;;2.37;;
60726;SDS011;46577;49.004;12.120;2022-08-01T06:01:09;4.83;;;2.50;;
60726;SDS011;46577;49.004;12.120;2022-08-01T06:03:35;2.10;;;1.90;;
60726;SDS011;46577;49.004;12.120;2022-08-01T06:06:01;9.90;;;2.50;;
60726;SDS011;46577;49.004;12.120;2022-08-01T06:08:27;3.00;;;1.80;;
60726;SDS011;46577;49.004;12.120;2022-08-01T06:10:53;3.63;;;2.17;;
60726;SDS011;46577;49.004;12.120;2022-08-01T06:13:18;4.97;;;2.10;;
60726;SDS011;46577;49.004;12.120;2022-08-01T06:15:44;3.10;;;2.07;;
60726;SDS011;46577;49.004;12.120;2022-08-01T06:18:11;3.87;;;2.37;;
60726;SDS011;46577;49.004;12.120;2022-08-01T06:20:36;2.00;;;1.80;;
60726;SDS011;46577;49.004;12.120;2022-08-01T06:23:02;1.97;;;1.87;;
60726;SDS011;46577;49.004;12.120;2022-08-01T06:25:28;3.20;;;1.80;;
60726;SDS011;46577;49.004;12.120;2022-08-01T06:27:54;2.47;;;1.90;;
60726;SDS011;46577;49.004;12.120;2022-08-01T06:30:20;1.67;;;1.57;;
60726;SDS011;46577;49.004;12.120;2022-08-01T06:32:46;2.70;;;1.70;;
60726;SDS011;46577;49.004;12.120;2022-08-01T06:35:12;4.77;;;1.70;;
60726;SDS011;46577;49.004;12.120;2022-08-01T06:37:38;3.37;;;1.40;;
60726;SDS011;46577;49.004;12.120;2022-08-01T06:40:05;3.77;;;1.60;;
60726;SDS011;46577;49.004;12.120;2022-08-01T06:42:32;3.63;;;1.55;;
60726;SDS011;46577;49.004;12.120;2022-08-01T06:47:29;1.63;;;1.27;;
60726;SDS011;46577;49.004;12.120;2022-08-01T06:49:54;1.40;;;1.30;;
60726;SDS011;46577;49.004;12.120;2022-08-01T06:52:20;2.22;;;1.70;;
60726;SDS011;46577;49.004;12.120;2022-08-01T06:54:45;1.45;;;1.35;;
60726;SDS011;46577;49.004;12.120;2022-08-01T06:57:11;1.27;;;1.15;;
60726;SDS011;46577;49.004;12.120;2022-08-01T06:59:37;2.13;;;1.50;;
60726;SDS011;46577;49.004;12.120;2022-08-01T07:02:02;3.90;;;1.20;;
60726;SDS011;46577;49.004;12.120;2022-08-01T07:04:28;1.30;;;0.80;;
60726;SDS011;46577;49.004;12.120;2022-08-01T07:06:54;1.10;;;0.93;;
60726;SDS011;46577;49.004;12.120;2022-08-01T07:09:21;1.17;;;1.08;;
60726;SDS011;46577;49.004;12.120;2022-08-01T07:11:46;3.55;;;0.80;;
60726;SDS011;46577;49.004;12.120;2022-08-01T07:14:12;0.70;;;0.70;;
60726;SDS011;46577;49.004;12.120;2022-08-01T07:16:37;2.70;;;0.70;;
60726;SDS011;46577;49.004;12.120;2022-08-01T07:19:03;1.15;;;1.00;;
60726;SDS011;46577;49.004;12.120;2022-08-01T07:21:29;3.28;;;0.85;;
60726;SDS011;46577;49.004;12.120;2022-08-01T07:23:54;1.80;;;0.70;;
60726;SDS011;46577;49.004;12.120;2022-08-01T07:26:20;3.75;;;0.98;;
60726;SDS011;46577;49.004;12.120;2022-08-01T07:28:46;2.70;;;0.70;;
60726;SDS011;46577;49.004;12.120;2022-08-01T07:31:11;3.22;;;1.02;;
60726;SDS011;46577;49.004;12.120;2022-08-01T07:33:37;1.10;;;0.88;;
60726;SDS011;46577;49.004;12.120;2022-08-01T07:36:03;0.60;;;0.60;;
60726;SDS011;46577;49.004;12.120;2022-08-01T07:38:28;2.47;;;0.88;;
60726;SDS011;46577;49.004;12.120;2022-08-01T07:40:54;0.85;;;0.73;;
60726;SDS011;46577;49.004;12.120;2022-08-01T07:43:21;1.25;;;0.70;;
60726;SDS011;46577;49.004;12.120;2022-08-01T07:45:47;3.45;;;0.60;;
60726;SDS011;46577;49.004;12.120;2022-08-01T07:48:12;0.70;;;0.70;;
60726;SDS011;46577;49.004;12.120;2022-08-01T07:50:38;2.13;;;1.17;;
60726;SDS011;46577;49.004;12.120;2022-08-01T07:53:03;1.10;;;0.60;;
60726;SDS011;46577;49.004;12.120;2022-08-01T07:55:29;0.77;;;0.50;;
60726;SDS011;46577;49.004;12.120;2022-08-01T07:57:55;6.07;;;0.68;;
60726;SDS011;46577;49.004;12.120;2022-08-01T08:00:20;1.20;;;0.60;;
60726;SDS011;46577;49.004;12.120;2022-08-01T08:02:46;0.85;;;0.60;;
60726;SDS011;46577;49.004;12.120;2022-08-01T08:05:11;2.58;;;0.60;;
60726;SDS011;46577;49.004;12.120;2022-08-01T08:07:38;0.50;;;0.50;;
60726;SDS011;46577;49.004;12.120;2022-08-01T08:10:04;0.80;;;0.60;;
60726;SDS011;46577;49.004;12.120;2022-08-01T08:12:30;1.00;;;0.70;;
60726;SDS011;46577;49.004;12.120;2022-08-01T08:14:56;1.20;;;0.50;;
60726;SDS011;46577;49.004;12.120;2022-08-01T08:17:26;0.95;;;0.60;;
60726;SDS011;46577;49.004;12.120;2022-08-01T08:19:52;1.50;;;0.60;;
60726;SDS011;46577;49.004;12.120;2022-08-01T08:22:18;2.25;;;0.60;;
60726;SDS011;46577;49.004;12.120;2022-08-01T08:24:43;1.90;;;0.60;;
60726;SDS011;46577;49.004;12.120;2022-08-01T08:27:09;1.08;;;0.90;;
60726;SDS011;46577;49.004;12.120;2022-08-01T08:29:35;1.23;;;1.10;;
60726;SDS011;46577;49.004;12.120;2022-08-01T08:32:01;0.70;;;0.70;;
60726;SDS011;46577;49.004;12.120;2022-08-01T08:34:27;1.08;;;0.70;;
60726;SDS011;46577;49.004;12.120;2022-08-01T08:36:54;4.93;;;0.80;;
60726;SDS011;46577;49.004;12.120;2022-08-01T08:39:21;1.20;;;1.00;;
60726;SDS011;46577;49.004;12.120;2022-08-01T08:41:47;1.55;;;1.05;;
60726;SDS011;46577;49.004;12.120;2022-08-01T08:44:13;4.05;;;1.08;;
60726;SDS011;46577;49.004;12.120;2022-08-01T08:46:43;2.20;;;1.97;;
60726;SDS011;46577;49.004;12.120;2022-08-01T08:49:11;4.40;;;1.50;;
60726;SDS011;46577;49.004;12.120;2022-08-01T08:51:41;2.97;;;1.47;;
60726;SDS011;46577;49.004;12.120;2022-08-01T08:54:10;1.90;;;1.43;;
60726;SDS011;46577;49.004;12.120;2022-08-01T08:56:37;1.97;;;1.50;;
60726;SDS011;46577;49.004;12.120;2022-08-01T08:59:03;4.13;;;1.93;;
60726;SDS011;46577;49.004;12.120;2022-08-01T09:01:32;1.77;;;1.67;;
60726;SDS011;46577;49.004;12.120;2022-08-01T09:03:59;1.50;;;1.40;;
60726;SDS011;46577;49.004;12.120;2022-08-01T09:06:26;2.17;;;1.83;;
60726;SDS011;46577;49.004;12.120;2022-08-01T09:08:53;2.03;;;1.90;;
60726;SDS011;46577;49.004;12.120;2022-08-01T09:11:18;3.63;;;1.50;;
60726;SDS011;46577;49.004;12.120;2022-08-01T09:14:00;2.10;;;1.90;;
60726;SDS011;46577;49.004;12.120;2022-08-01T09:16:26;1.53;;;1.43;;
60726;SDS011;46577;49.004;12.120;2022-08-01T09:18:52;2.17;;;1.83;;
60726;SDS011;46577;49.004;12.120;2022-08-01T09:21:18;2.13;;;1.93;;
60726;SDS011;46577;49.004;12.120;2022-08-01T09:26:15;1.40;;;1.30;;
60726;SDS011;46577;49.004;12.120;2022-08-01T09:28:43;3.07;;;1.50;;
60726;SDS011;46577;49.004;12.120;2022-08-01T09:31:19;2.30;;;1.33;;
60726;SDS011;46577;49.004;12.120;2022-08-01T09:33:55;4.60;;;1.57;;
60726;SDS011;46577;49.004;12.120;2022-08-01T09:36:43;1.97;;;1.30;;
60726;SDS011;46577;49.004;12.120;2022-08-01T09:39:34;1.27;;;0.83;;
60726;SDS011;46577;49.004;12.120;2022-08-01T09:42:18;0.80;;;0.80;;
60726;SDS011;46577;49.004;12.120;2022-08-01T09:44:44;1.13;;;0.80;;
60726;SDS011;46577;49.004;12.120;2022-08-01T09:47:10;2.92;;;1.10;;
60726;SDS011;46577;49.004;12.120;2022-08-01T09:49:38;1.17;;;1.07;;
60726;SDS011;46577;49.004;12.120;2022-08-01T09:52:15;4.73;;;1.40;;
60726;SDS011;46577;49.004;12.120;2022-08-01T09:54:43;3.60;;;1.57;;
60726;SDS011;46577;49.004;12.120;2022-08-01T09:57:17;2.07;;;1.37;;
60726;SDS011;46577;49.004;12.120;2022-08-01T09:59:44;2.10;;;1.20;;
60726;SDS011;46577;49.004;12.120;2022-08-01T10:02:11;1.60;;;1.37;;
60726;SDS011;46577;49.004;12.120;2022-08-01T10:04:49;1.60;;;1.10;;
60726;SDS011;46577;49.004;12.120;2022-08-01T10:07:16;4.00;;;1.77;;
60726;SDS011;46577;49.004;12.120;2022-08-01T10:09:44;1.57;;;1.40;;
60726;SDS011;46577;49.004;12.120;2022-08-01T10:12:12;1.40;;;1.20;;
60726;SDS011;46577;49.004;12.120;2022-08-01T10:14:40;2.70;;;0.97;;
60726;SDS011;46577;49.004;12.120;2022-08-01T10:17:09;1.50;;;1.17;;
60726;SDS011;46577;49.004;12.120;2022-08-01T10:19:37;1.80;;;1.07;;
60726;SDS011;46577;49.004;12.120;2022-08-01T10:22:07;1.60;;;1.50;;
60726;SDS011;46577;49.004;12.120;2022-08-01T10:24:34;3.20;;;1.30;;
60726;SDS011;46577;49.004;12.120;2022-08-01T10:27:03;4.45;;;1.10;;
60726;SDS011;46577;49.004;12.120;2022-08-01T10:29:33;1.45;;;1.20;;
60726;SDS011;46577;49.004;12.120;2022-08-01T10:32:20;1.07;;;1.07;;
60726;SDS011;46577;49.004;12.120;2022-08-01T10:34:47;2.93;;;1.50;;
60726;SDS011;46577;49.004;12.120;2022-08-01T10:37:17;1.20;;;1.10;;
60726;SDS011;46577;49.004;12.120;2022-08-01T10:39:43;2.57;;;1.33;;
60726;SDS011;46577;49.004;12.120;2022-08-01T10:42:09;3.37;;;1.37;;
60726;SDS011;46577;49.004;12.120;2022-08-01T10:44:36;2.97;;;1.20;;
60726;SDS011;46577;49.004;12.120;2022-08-01T10:47:09;3.33;;;1.20;;
60726;SDS011;46577;49.004;12.120;2022-08-01T10:53:03;2.33;;;0.80;;
60726;SDS011;46577;49.004;12.120;2022-08-01T10:55:52;1.47;;;0.80;;
60726;SDS011;46577;49.004;12.120;2022-08-01T10:58:21;2.50;;;1.20;;
60726;SDS011;46577;49.004;12.120;2022-08-01T11:06:24;1.20;;;1.10;;
60726;SDS011;46577;49.004;12.120;2022-08-01T11:09:00;1.73;;;1.47;;
60726;SDS011;46577;49.004;12.120;2022-08-01T11:11:30;3.40;;;1.20;;
60726;SDS011;46577;49.004;12.120;2022-08-01T11:16:38;1.90;;;0.97;;
60726;SDS011;46577;49.004;12.120;2022-08-01T11:19:05;1.70;;;1.10;;
60726;SDS011;46577;49.004;12.120;2022-08-01T11:32:47;1.20;;;1.10;;
60726;SDS011;46577;49.004;12.120;2022-08-01T11:35:17;3.33;;;1.50;;
60726;SDS011;46577;49.004;12.120;2022-08-01T11:37:44;2.50;;;1.40;;
60726;SDS011;46577;49.004;12.120;2022-08-01T11:40:20;1.67;;;1.20;;
60726;SDS011;46577;49.004;12.120;2022-08-01T11:42:48;2.70;;;1.23;;
60726;SDS011;46577;49.004;12.120;2022-08-01T11:45:15;1.97;;;1.10;;
60726;SDS011;46577;49.004;12.120;2022-08-01T11:47:48;1.97;;;1.50;;
60726;SDS011;46577;49.004;12.120;2022-08-01T11:50:33;4.70;;;1.37;;
60726;SDS011;46577;49.004;12.120;2022-08-01T11:53:03;2.30;;;1.33;;
60726;SDS011;46577;49.004;12.120;2022-08-01T11:55:30;1.87;;;1.40;;
60726;SDS011;46577;49.004;12.120;2022-08-01T11:58:04;3.20;;;1.53;;
60726;SDS011;46577;49.004;12.120;2022-08-01T12:00:31;2.47;;;1.17;;
60726;SDS011;46577;49.004;12.120;2022-08-01T12:02:58;2.30;;;1.43;;
60726;SDS011;46577;49.004;12.120;2022-08-01T12:05:26;2.20;;;1.47;;
60726;SDS011;46577;49.004;12.120;2022-08-01T12:07:53;8.67;;;1.40;;
60726;SDS011;46577;49.004;12.120;2022-08-01T12:10:22;2.47;;;1.40;;
60726;SDS011;46577;49.004;12.120;2022-08-01T12:12:50;1.67;;;0.97;;
60726;SDS011;46577;49.004;12.120;2022-08-01T12:15:18;1.10;;;1.03;;
60726;SDS011;46577;49.004;12.120;2022-08-01T12:17:46;1.93;;;1.73;;
60726;SDS011;46577;49.004;12.120;2022-08-01T12:20:14;4.10;;;2.07;;
60726;SDS011;46577;49.004;12.120;2022-08-01T12:22:41;2.90;;;1.50;;
60726;SDS011;46577;49.004;12.120;2022-08-01T12:25:17;1.60;;;1.40;;
60726;SDS011;46577;49.004;12.120;2022-08-01T12:27:44;1.83;;;1.60;;
60726;SDS011;46577;49.004;12.120;2022-08-01T12:30:12;3.83;;;1.40;;
60726;SDS011;46577;49.004;12.120;2022-08-01T12:32:40;2.03;;;1.37;;
60726;SDS011;46577;49.004;12.120;2022-08-01T12:37:39;1.30;;;1.20;;
60726;SDS011;46577;49.004;12.120;2022-08-01T12:40:11;2.17;;;1.20;;
60726;SDS011;46577;49.004;12.120;2022-08-01T12:42:40;7.57;;;1.20;;
60726;SDS011;46577;49.004;12.120;2022-08-01T12:45:08;3.20;;;1.50;;
60726;SDS011;46577;49.004;12.120;2022-08-01T12:47:38;3.53;;;2.80;;
60726;SDS011;46577;49.004;12.120;2022-08-01T12:50:05;3.50;;;1.20;;
60726;SDS011;46577;49.004;12.120;2022-08-01T12:52:33;2.53;;;1.40;;
60726;SDS011;46577;49.004;12.120;2022-08-01T12:55:09;2.40;;;2.20;;
60726;SDS011;46577;49.004;12.120;2022-08-01T12:57:46;2.30;;;1.67;;
60726;SDS011;46577;49.004;12.120;2022-08-01T13:02:48;2.33;;;1.70;;
60726;SDS011;46577;49.004;12.120;2022-08-01T13:05:15;1.60;;;1.23;;
60726;SDS011;46577;49.004;12.120;2022-08-01T13:07:43;3.73;;;1.43;;
60726;SDS011;46577;49.004;12.120;2022-08-01T13:10:23;1.80;;;1.40;;
60726;SDS011;46577;49.004;12.120;2022-08-01T13:12:52;3.00;;;1.47;;
60726;SDS011;46577;49.004;12.120;2022-08-01T13:17:53;1.80;;;1.30;;
60726;SDS011;46577;49.004;12.120;2022-08-01T13:20:30;2.20;;;1.03;;
60726;SDS011;46577;49.004;12.120;2022-08-01T13:23:11;1.83;;;1.40;;
60726;SDS011;46577;49.004;12.120;2022-08-01T13:25:55;3.63;;;1.17;;
60726;SDS011;46577;49.004;12.120;2022-08-01T13:28:27;2.23;;;1.13;;
60726;SDS011;46577;49.004;12.120;2022-08-01T13:30:54;1.20;;;1.10;;
60726;SDS011;46577;49.004;12.120;2022-08-01T13:33:21;3.43;;;1.23;;
60726;SDS011;46577;49.004;12.120;2022-08-01T13:35:56;3.80;;;1.37;;
60726;SDS011;46577;49.004;12.120;2022-08-01T13:38:22;1.77;;;1.20;;
60726;SDS011;46577;49.004;12.120;2022-08-01T13:41:08;2.80;;;1.37;;
60726;SDS011;46577;49.004;12.120;2022-08-01T13:43:34;1.70;;;1.33;;
60726;SDS011;46577;49.004;12.120;2022-08-01T13:46:00;2.73;;;1.30;;
60726;SDS011;46577;49.004;12.120;2022-08-01T13:48:28;1.40;;;1.30;;
60726;SDS011;46577;49.004;12.120;2022-08-01T13:50:55;2.50;;;1.30;;
60726;SDS011;46577;49.004;12.120;2022-08-01T13:53:20;2.20;;;1.30;;
60726;SDS011;46577;49.004;12.120;2022-08-01T13:55:46;1.63;;;1.33;;
60726;SDS011;46577;49.004;12.120;2022-08-01T13:58:12;2.00;;;1.27;;
60726;SDS011;46577;49.004;12.120;2022-08-01T14:00:37;2.80;;;1.43;;
60726;SDS011;46577;49.004;12.120;2022-08-01T14:03:03;2.03;;;1.33;;
60726;SDS011;46577;49.004;12.120;2022-08-01T14:05:29;2.70;;;1.33;;
60726;SDS011;46577;49.004;12.120;2022-08-01T14:07:55;1.40;;;1.30;;
60726;SDS011;46577;49.004;12.120;2022-08-01T14:10:20;1.67;;;1.10;;
60726;SDS011;46577;49.004;12.120;2022-08-01T14:12:47;9.70;;;1.57;;
60726;SDS011;46577;49.004;12.120;2022-08-01T14:15:13;3.27;;;1.40;;
60726;SDS011;46577;49.004;12.120;2022-08-01T14:17:38;3.50;;;1.23;;
60726;SDS011;46577;49.004;12.120;2022-08-01T14:20:04;1.63;;;1.10;;
60726;SDS011;46577;49.004;12.120;2022-08-01T14:22:30;1.30;;;1.10;;
60726;SDS011;46577;49.004;12.120;2022-08-01T14:24:56;1.20;;;1.10;;
60726;SDS011;46577;49.004;12.120;2022-08-01T14:27:22;5.47;;;1.10;;
60726;SDS011;46577;49.004;12.120;2022-08-01T14:29:47;1.00;;;0.90;;
60726;SDS011;46577;49.004;12.120;2022-08-01T14:32:13;1.37;;;1.00;;
60726;SDS011;46577;49.004;12.120;2022-08-01T14:34:38;1.20;;;1.00;;
60726;SDS011;46577;49.004;12.120;2022-08-01T14:37:04;1.70;;;1.60;;
60726;SDS011;46577;49.004;12.120;2022-08-01T14:39:30;1.27;;;1.00;;
60726;SDS011;46577;49.004;12.120;2022-08-01T14:41:55;1.53;;;1.10;;
60726;SDS011;46577;49.004;12.120;2022-08-01T14:44:21;1.67;;;1.17;;
60726;SDS011;46577;49.004;12.120;2022-08-01T14:46:46;1.40;;;1.20;;
60726;SDS011;46577;49.004;12.120;2022-08-01T14:49:13;1.70;;;0.90;;
60726;SDS011;46577;49.004;12.120;2022-08-01T14:51:39;2.60;;;1.10;;
60726;SDS011;46577;49.004;12.120;2022-08-01T14:54:05;1.20;;;1.10;;
60726;SDS011;46577;49.004;12.120;2022-08-01T14:56:31;3.27;;;1.10;;
60726;SDS011;46577;49.004;12.120;2022-08-01T14:58:56;1.50;;;1.00;;
60726;SDS011;46577;49.004;12.120;2022-08-01T15:01:23;1.33;;;1.23;;
60726;SDS011;46577;49.004;12.120;2022-08-01T15:03:49;3.13;;;1.10;;
60726;SDS011;46577;49.004;12.120;2022-08-01T15:06:16;1.10;;;1.00;;
60726;SDS011;46577;49.004;12.120;2022-08-01T15:08:42;2.83;;;1.13;;
60726;SDS011;46577;49.004;12.120;2022-08-01T15:11:08;1.33;;;0.80;;
60726;SDS011;46577;49.004;12.120;2022-08-01T15:13:34;0.90;;;0.80;;
60726;SDS011;46577;49.004;12.120;2022-08-01T15:16:00;1.00;;;0.90;;
60726;SDS011;46577;49.004;12.120;2022-08-01T15:18:27;1.50;;;0.90;;
60726;SDS011;46577;49.004;12.120;2022-08-01T15:20:53;1.97;;;0.67;;
60726;SDS011;46577;49.004;12.120;2022-08-01T15:23:19;2.77;;;1.20;;
60726;SDS011;46577;49.004;12.120;2022-08-01T15:25:45;3.13;;;0.90;;
60726;SDS011;46577;49.004;12.120;2022-08-01T15:28:11;2.10;;;1.23;;